sensor_id;sensor_type;location;lat;lon;timestamp;pressure;altitude;pressure_sealevel;temperature;humidity
9091;BME280;4581;42.416;25.598;2023-01-27T00:01:14;97593.31;;;6.05;100.00
9091;BME280;4581;42.416;25.598;2023-01-27T00:03:41;97620.72;;;5.99;100.00
9091;BME280;4581;42.416;25.598;2023-01-27T00:06:07;97628.41;;;6.02;100.00
9091;BME280;4581;42.416;25.598;2023-01-27T00:08:37;97639.78;;;6.04;100.00
9091;BME280;4581;42.416;25.598;2023-01-27T00:11:04;97639.78;;;6.04;100.00
9091;BME280;4581;42.416;25.598;2023-01-27T00:13:49;97650.50;;;6.04;100.00
9091;BME280;4581;42.416;25.598;2023-01-27T00:16:15;97653.31;;;6.02;100.00
9091;BME280;4581;42.416;25.598;2023-01-27T00:18:42;97649.66;;;6.03;100.00
9091;BME280;4581;42.416;25.598;2023-01-27T00:21:09;97643.09;;;6.14;100.00
9091;BME280;4581;42.416;25.598;2023-01-27T00:23:54;97648.47;;;6.06;100.00
9091;BME280;4581;42.416;25.598;2023-01-27T00:26:40;97651.13;;;6.06;100.00
9091;BME280;4581;42.416;25.598;2023-01-27T00:29:06;97644.78;;;6.07;100.00
9091;BME280;4581;42.416;25.598;2023-01-27T00:31:33;97630.75;;;6.05;100.00
9091;BME280;4581;42.416;25.598;2023-01-27T00:34:18;97622.53;;;6.06;100.00
9091;BME280;4581;42.416;25.598;2023-01-27T00:36:45;97632.41;;;6.06;100.00
9091;BME280;4581;42.416;25.598;2023-01-27T00:39:11;97639.44;;;6.07;100.00
9091;BME280;4581;42.416;25.598;2023-01-27T00:41:39;97631.91;;;6.10;100.00
9091;BME280;4581;42.416;25.598;2023-01-27T00:44:06;97618.53;;;6.10;100.00
9091;BME280;4581;42.416;25.598;2023-01-27T00:46:38;97623.03;;;6.10;100.00
9091;BME280;4581;42.416;25.598;2023-01-27T00:49:05;97603.66;;;6.08;100.00
9091;BME280;4581;42.416;25.598;2023-01-27T00:51:31;97602.66;;;6.09;100.00
9091;BME280;4581;42.416;25.598;2023-01-27T00:53:58;97606.19;;;6.09;100.00
9091;BME280;4581;42.416;25.598;2023-01-27T00:56:28;97591.78;;;6.10;100.00
9091;BME280;4581;42.416;25.598;2023-01-27T00:58:55;97596.28;;;6.10;100.00
9091;BME280;4581;42.416;25.598;2023-01-27T01:01:22;97581.25;;;6.09;100.00
9091;BME280;4581;42.416;25.598;2023-01-27T01:03:49;97580.91;;;6.12;100.00
9091;BME280;4581;42.416;25.598;2023-01-27T01:06:17;97587.25;;;6.11;100.00
9091;BME280;4581;42.416;25.598;2023-01-27T01:08:44;97581.75;;;6.13;100.00
9091;BME280;4581;42.416;25.598;2023-01-27T01:11:13;97584.94;;;6.08;100.00
9091;BME280;4581;42.416;25.598;2023-01-27T01:13:41;97574.75;;;6.03;100.00
9091;BME280;4581;42.416;25.598;2023-01-27T01:16:12;97566.38;;;6.06;100.00
9091;BME280;4581;42.416;25.598;2023-01-27T01:18:40;97566.88;;;6.02;100.00
9091;BME280;4581;42.416;25.598;2023-01-27T01:21:06;97568.19;;;6.06;100.00
9091;BME280;4581;42.416;25.598;2023-01-27T01:23:38;97567.53;;;6.12;100.00
9091;BME280;4581;42.416;25.598;2023-01-27T01:26:05;97576.56;;;6.11;100.00
9091;BME280;4581;42.416;25.598;2023-01-27T01:28:32;97572.03;;;6.11;100.00
9091;BME280;4581;42.416;25.598;2023-01-27T01:31:05;97572.38;;;6.17;100.00
9091;BME280;4581;42.416;25.598;2023-01-27T01:33:32;97572.53;;;6.15;100.00
9091;BME280;4581;42.416;25.598;2023-01-27T01:36:07;97576.72;;;6.18;100.00
9091;BME280;4581;42.416;25.598;2023-01-27T01:38:34;97575.72;;;6.10;100.00
9091;BME280;4581;42.416;25.598;2023-01-27T01:41:01;97571.56;;;6.08;100.00
9091;BME280;4581;42.416;25.598;2023-01-27T01:43:28;97561.34;;;6.11;100.00
9091;BME280;4581;42.416;25.598;2023-01-27T01:46:01;97547.47;;;6.08;100.00
9091;BME280;4581;42.416;25.598;2023-01-27T01:53:51;97529.38;;;6.18;100.00
9091;BME280;4581;42.416;25.598;2023-01-27T01:56:24;97524.22;;;6.17;100.00
9091;BME280;4581;42.416;25.598;2023-01-27T01:58:53;97502.31;;;6.13;100.00
9091;BME280;4581;42.416;25.598;2023-01-27T02:01:21;97510.63;;;6.18;100.00
9091;BME280;4581;42.416;25.598;2023-01-27T02:03:51;97503.16;;;6.14;100.00
9091;BME280;4581;42.416;25.598;2023-01-27T02:06:20;97484.59;;;6.12;100.00
9091;BME280;4581;42.416;25.598;2023-01-27T02:08:48;97510.63;;;6.18;100.00
9091;BME280;4581;42.416;25.598;2023-01-27T02:11:15;97514.50;;;6.16;100.00
9091;BME280;4581;42.416;25.598;2023-01-27T02:13:42;97508.31;;;6.15;100.00
9091;BME280;4581;42.416;25.598;2023-01-27T02:16:10;97498.81;;;6.13;100.00
9091;BME280;4581;42.416;25.598;2023-01-27T02:18:41;97495.94;;;6.14;100.00
9091;BME280;4581;42.416;25.598;2023-01-27T02:21:08;97498.97;;;6.11;100.00
9091;BME280;4581;42.416;25.598;2023-01-27T02:24:17;97501.81;;;6.18;100.00
9091;BME280;4581;42.416;25.598;2023-01-27T02:26:36;97512.66;;;6.16;100.00
9091;BME280;4581;42.416;25.598;2023-01-27T02:29:08;97503.66;;;6.09;100.00
9091;BME280;4581;42.416;25.598;2023-01-27T02:31:36;97476.22;;;6.15;100.00
9091;BME280;4581;42.416;25.598;2023-01-27T02:34:06;97456.47;;;6.16;100.00
9091;BME280;4581;42.416;25.598;2023-01-27T02:36:38;97467.50;;;6.21;100.00
9091;BME280;4581;42.416;25.598;2023-01-27T02:39:07;97488.22;;;6.19;100.00
9091;BME280;4581;42.416;25.598;2023-01-27T02:41:42;97498.44;;;6.16;100.00
9091;BME280;4581;42.416;25.598;2023-01-27T02:44:10;97502.81;;;6.17;100.00
9091;BME280;4581;42.416;25.598;2023-01-27T02:46:37;97503.16;;;6.14;100.00
9091;BME280;4581;42.416;25.598;2023-01-27T02:49:03;97505.63;;;6.15;100.00
9091;BME280;4581;42.416;25.598;2023-01-27T02:51:30;97510.59;;;6.26;100.00
9091;BME280;4581;42.416;25.598;2023-01-27T02:53:57;97514.97;;;6.27;100.00
9091;BME280;4581;42.416;25.598;2023-01-27T02:56:24;97518.31;;;6.29;100.00
9091;BME280;4581;42.416;25.598;2023-01-27T02:58:51;97500.91;;;6.33;100.00
9091;BME280;4581;42.416;25.598;2023-01-27T03:01:17;97505.97;;;6.20;100.00
9091;BME280;4581;42.416;25.598;2023-01-27T03:03:44;97505.28;;;6.18;100.00
9091;BME280;4581;42.416;25.598;2023-01-27T03:06:13;97495.41;;;6.19;100.00
9091;BME280;4581;42.416;25.598;2023-01-27T03:08:40;97495.91;;;6.22;100.00
9091;BME280;4581;42.416;25.598;2023-01-27T03:11:07;97497.91;;;6.28;100.00
9091;BME280;4581;42.416;25.598;2023-01-27T03:13:34;97504.09;;;6.29;100.00
9091;BME280;4581;42.416;25.598;2023-01-27T03:16:05;97488.03;;;6.29;100.00
9091;BME280;4581;42.416;25.598;2023-01-27T03:18:51;97478.38;;;6.20;100.00
9091;BME280;4581;42.416;25.598;2023-01-27T03:21:21;97485.56;;;6.19;100.00
9091;BME280;4581;42.416;25.598;2023-01-27T03:23:48;97487.59;;;6.17;100.00
9091;BME280;4581;42.416;25.598;2023-01-27T03:26:15;97494.25;;;6.21;100.00
9091;BME280;4581;42.416;25.598;2023-01-27T03:28:41;97492.94;;;6.17;100.00
9091;BME280;4581;42.416;25.598;2023-01-27T03:31:10;97512.50;;;6.18;100.00
9091;BME280;4581;42.416;25.598;2023-01-27T03:33:46;97494.41;;;6.20;100.00
9091;BME280;4581;42.416;25.598;2023-01-27T03:36:14;97478.19;;;6.21;100.00
9091;BME280;4581;42.416;25.598;2023-01-27T03:38:59;97464.84;;;6.13;100.00
9091;BME280;4581;42.416;25.598;2023-01-27T03:41:44;97477.88;;;6.16;100.00
9091;BME280;4581;42.416;25.598;2023-01-27T03:44:29;97474.22;;;6.17;100.00
9091;BME280;4581;42.416;25.598;2023-01-27T03:47:13;97465.81;;;6.20;100.00
9091;BME280;4581;42.416;25.598;2023-01-27T03:49:40;97460.47;;;6.20;100.00
9091;BME280;4581;42.416;25.598;2023-01-27T03:52:07;97449.75;;;6.20;100.00
9091;BME280;4581;42.416;25.598;2023-01-27T03:54:33;97452.44;;;6.20;100.00
9091;BME280;4581;42.416;25.598;2023-01-27T03:57:00;97461.31;;;6.21;100.00
9091;BME280;4581;42.416;25.598;2023-01-27T03:59:31;97468.13;;;6.23;100.00
9091;BME280;4581;42.416;25.598;2023-01-27T04:01:59;97480.03;;;6.21;100.00
9091;BME280;4581;42.416;25.598;2023-01-27T04:04:45;97490.91;;;6.19;100.00
9091;BME280;4581;42.416;25.598;2023-01-27T04:07:34;97480.53;;;6.24;100.00
9091;BME280;4581;42.416;25.598;2023-01-27T04:10:02;97475.81;;;6.26;100.00
9091;BME280;4581;42.416;25.598;2023-01-27T04:12:29;97460.13;;;6.23;100.00
9091;BME280;4581;42.416;25.598;2023-01-27T04:14:55;97456.44;;;6.24;100.00
9091;BME280;4581;42.416;25.598;2023-01-27T04:17:22;97464.09;;;6.27;100.00
9091;BME280;4581;42.416;25.598;2023-01-27T04:19:48;97464.81;;;6.21;100.00
9091;BME280;4581;42.416;25.598;2023-01-27T04:22:15;97461.06;;;6.30;100.00
9091;BME280;4581;42.416;25.598;2023-01-27T04:24:42;97457.59;;;6.30;100.00
9091;BME280;4581;42.416;25.598;2023-01-27T04:27:12;97457.75;;;6.28;100.00
9091;BME280;4581;42.416;25.598;2023-01-27T04:29:40;97461.75;;;6.32;100.00
9091;BME280;4581;42.416;25.598;2023-01-27T04:32:09;97449.06;;;6.26;100.00
9091;BME280;4581;42.416;25.598;2023-01-27T04:34:37;97446.22;;;6.28;100.00
9091;BME280;4581;42.416;25.598;2023-01-27T04:37:05;97449.41;;;6.23;100.00
9091;BME280;4581;42.416;25.598;2023-01-27T04:39:33;97436.03;;;6.23;100.00
9091;BME280;4581;42.416;25.598;2023-01-27T04:42:00;97421.28;;;6.27;100.00
9091;BME280;4581;42.416;25.598;2023-01-27T04:44:26;97401.56;;;6.28;100.00
9091;BME280;4581;42.416;25.598;2023-01-27T04:46:53;97396.69;;;6.32;100.00
9091;BME280;4581;42.416;25.598;2023-01-27T04:49:20;97401.72;;;6.27;100.00
9091;BME280;4581;42.416;25.598;2023-01-27T04:51:47;97407.38;;;6.32;100.00
9091;BME280;4581;42.416;25.598;2023-01-27T04:54:14;97411.22;;;6.37;100.00
9091;BME280;4581;42.416;25.598;2023-01-27T04:56:52;97418.19;;;6.38;100.00
9091;BME280;4581;42.416;25.598;2023-01-27T04:59:20;97427.59;;;6.34;100.00
9091;BME280;4581;42.416;25.598;2023-01-27T05:01:46;97422.25;;;6.34;100.00
9091;BME280;4581;42.416;25.598;2023-01-27T05:04:13;97408.16;;;6.40;100.00
9091;BME280;4581;42.416;25.598;2023-01-27T05:06:40;97397.47;;;6.40;100.00
9091;BME280;4581;42.416;25.598;2023-01-27T05:09:06;97419.25;;;6.37;100.00
9091;BME280;4581;42.416;25.598;2023-01-27T05:11:33;97421.56;;;6.40;100.00
9091;BME280;4581;42.416;25.598;2023-01-27T05:14:00;97417.16;;;6.47;100.00
9091;BME280;4581;42.416;25.598;2023-01-27T05:16:26;97416.78;;;6.50;100.00
9091;BME280;4581;42.416;25.598;2023-01-27T05:18:53;97430.38;;;6.49;100.00
9091;BME280;4581;42.416;25.598;2023-01-27T05:21:22;97431.25;;;6.41;100.00
9091;BME280;4581;42.416;25.598;2023-01-27T05:23:50;97444.81;;;6.40;100.00
9091;BME280;4581;42.416;25.598;2023-01-27T05:26:20;97446.97;;;6.44;100.00
9091;BME280;4581;42.416;25.598;2023-01-27T05:28:48;97447.59;;;6.46;100.00
9091;BME280;4581;42.416;25.598;2023-01-27T05:31:16;97440.88;;;6.50;100.00
9091;BME280;4581;42.416;25.598;2023-01-27T05:33:44;97444.75;;;6.48;100.00
9091;BME280;4581;42.416;25.598;2023-01-27T05:36:13;97442.44;;;6.45;100.00
9091;BME280;4581;42.416;25.598;2023-01-27T05:38:40;97449.13;;;6.49;100.00
9091;BME280;4581;42.416;25.598;2023-01-27T05:41:09;97452.63;;;6.49;100.00
9091;BME280;4581;42.416;25.598;2023-01-27T05:43:37;97456.47;;;6.47;100.00
9091;BME280;4581;42.416;25.598;2023-01-27T05:46:06;97452.16;;;6.46;100.00
9091;BME280;4581;42.416;25.598;2023-01-27T05:48:34;97442.72;;;6.50;100.00
9091;BME280;4581;42.416;25.598;2023-01-27T05:51:02;97432.84;;;6.50;100.00
9091;BME280;4581;42.416;25.598;2023-01-27T05:53:30;97437.81;;;6.62;100.00
9091;BME280;4581;42.416;25.598;2023-01-27T05:55:57;97440.66;;;6.60;100.00
9091;BME280;4581;42.416;25.598;2023-01-27T05:58:24;97437.31;;;6.58;100.00
9091;BME280;4581;42.416;25.598;2023-01-27T06:00:51;97433.09;;;6.64;100.00
9091;BME280;4581;42.416;25.598;2023-01-27T06:03:18;97444.28;;;6.67;100.00
9091;BME280;4581;42.416;25.598;2023-01-27T06:05:50;97446.81;;;6.69;100.00
9091;BME280;4581;42.416;25.598;2023-01-27T06:08:17;97451.97;;;6.70;100.00
9091;BME280;4581;42.416;25.598;2023-01-27T06:10:44;97441.97;;;6.64;100.00
9091;BME280;4581;42.416;25.598;2023-01-27T06:13:11;97428.59;;;6.64;100.00
9091;BME280;4581;42.416;25.598;2023-01-27T06:15:42;97434.41;;;6.68;100.00
9091;BME280;4581;42.416;25.598;2023-01-27T06:18:09;97432.75;;;6.67;100.00
9091;BME280;4581;42.416;25.598;2023-01-27T06:20:37;97448.06;;;6.81;100.00
9091;BME280;4581;42.416;25.598;2023-01-27T06:23:05;97456.47;;;6.78;100.00
9091;BME280;4581;42.416;25.598;2023-01-27T06:25:42;97469.19;;;6.76;100.00
9091;BME280;4581;42.416;25.598;2023-01-27T06:28:09;97464.13;;;6.81;100.00
9091;BME280;4581;42.416;25.598;2023-01-27T06:30:52;97456.78;;;6.75;100.00
9091;BME280;4581;42.416;25.598;2023-01-27T06:33:19;97468.75;;;6.87;100.00
9091;BME280;4581;42.416;25.598;2023-01-27T06:35:45;97469.81;;;6.86;100.00
9091;BME280;4581;42.416;25.598;2023-01-27T06:38:12;97474.13;;;6.87;100.00
9091;BME280;4581;42.416;25.598;2023-01-27T06:40:40;97474.84;;;6.81;100.00
9091;BME280;4581;42.416;25.598;2023-01-27T06:43:11;97462.63;;;6.78;100.00
9091;BME280;4581;42.416;25.598;2023-01-27T06:45:39;97481.53;;;6.85;100.00
9091;BME280;4581;42.416;25.598;2023-01-27T06:48:06;97481.16;;;6.88;100.00
9091;BME280;4581;42.416;25.598;2023-01-27T06:50:34;97492.75;;;6.80;100.00
9091;BME280;4581;42.416;25.598;2023-01-27T06:53:04;97495.28;;;6.82;100.00
9091;BME280;4581;42.416;25.598;2023-01-27T06:55:32;97494.25;;;6.83;100.00
9091;BME280;4581;42.416;25.598;2023-01-27T06:58:02;97489.59;;;6.77;100.00
9091;BME280;4581;42.416;25.598;2023-01-27T07:00:29;97472.75;;;6.68;100.00
9091;BME280;4581;42.416;25.598;2023-01-27T07:02:56;97477.22;;;6.76;100.00
9091;BME280;4581;42.416;25.598;2023-01-27T07:05:23;97482.94;;;6.73;100.00
9091;BME280;4581;42.416;25.598;2023-01-27T07:07:50;97478.22;;;6.75;100.00
9091;BME280;4581;42.416;25.598;2023-01-27T07:10:17;97470.56;;;6.72;100.00
9091;BME280;4581;42.416;25.598;2023-01-27T07:12:44;97466.88;;;6.73;100.00
9091;BME280;4581;42.416;25.598;2023-01-27T07:15:11;97462.34;;;6.73;100.00
9091;BME280;4581;42.416;25.598;2023-01-27T07:17:38;97464.81;;;6.75;100.00
9091;BME280;4581;42.416;25.598;2023-01-27T07:20:07;97458.47;;;6.76;100.00
9091;BME280;4581;42.416;25.598;2023-01-27T07:22:35;97450.00;;;6.87;100.00
9091;BME280;4581;42.416;25.598;2023-01-27T07:25:03;97452.09;;;6.77;100.00
9091;BME280;4581;42.416;25.598;2023-01-27T07:27:29;97460.72;;;6.87;100.00
9091;BME280;4581;42.416;25.598;2023-01-27T07:29:56;97444.66;;;6.87;100.00
9091;BME280;4581;42.416;25.598;2023-01-27T07:32:22;97443.59;;;6.96;100.00
9091;BME280;4581;42.416;25.598;2023-01-27T07:34:52;97436.84;;;7.00;100.00
9091;BME280;4581;42.416;25.598;2023-01-27T07:37:19;97431.31;;;7.01;100.00
9091;BME280;4581;42.416;25.598;2023-01-27T07:39:45;97438.00;;;7.05;100.00
9091;BME280;4581;42.416;25.598;2023-01-27T07:42:13;97437.72;;;7.15;100.00
9091;BME280;4581;42.416;25.598;2023-01-27T07:44:40;97433.19;;;7.16;100.00
9091;BME280;4581;42.416;25.598;2023-01-27T07:47:07;97437.03;;;7.21;100.00
9091;BME280;4581;42.416;25.598;2023-01-27T07:49:33;97433.66;;;7.19;100.00
9091;BME280;4581;42.416;25.598;2023-01-27T07:52:00;97432.97;;;7.25;100.00
9091;BME280;4581;42.416;25.598;2023-01-27T07:54:27;97435.44;;;7.27;100.00
9091;BME280;4581;42.416;25.598;2023-01-27T07:56:53;97435.19;;;7.36;100.00
9091;BME280;4581;42.416;25.598;2023-01-27T07:59:20;97440.19;;;7.39;100.00
9091;BME280;4581;42.416;25.598;2023-01-27T08:01:46;97440.00;;;7.41;100.00
9091;BME280;4581;42.416;25.598;2023-01-27T08:04:14;97440.66;;;7.43;100.00
9091;BME280;4581;42.416;25.598;2023-01-27T08:06:40;97430.38;;;7.46;100.00
9091;BME280;4581;42.416;25.598;2023-01-27T08:09:07;97426.69;;;7.47;100.00
9091;BME280;4581;42.416;25.598;2023-01-27T08:11:34;97424.56;;;7.43;100.00
9091;BME280;4581;42.416;25.598;2023-01-27T08:14:00;97414.88;;;7.42;100.00
9091;BME280;4581;42.416;25.598;2023-01-27T08:16:27;97415.88;;;7.41;100.00
9091;BME280;4581;42.416;25.598;2023-01-27T08:18:54;97407.63;;;7.42;100.00
9091;BME280;4581;42.416;25.598;2023-01-27T08:21:21;97408.31;;;7.44;100.00
9091;BME280;4581;42.416;25.598;2023-01-27T08:23:48;97407.56;;;7.50;100.00
9091;BME280;4581;42.416;25.598;2023-01-27T08:26:15;97410.34;;;7.57;100.00
9091;BME280;4581;42.416;25.598;2023-01-27T08:28:41;97405.63;;;7.59;100.00
9091;BME280;4581;42.416;25.598;2023-01-27T08:31:13;97403.22;;;7.64;100.00
9091;BME280;4581;42.416;25.598;2023-01-27T08:33:42;97400.63;;;7.71;100.00
9091;BME280;4581;42.416;25.598;2023-01-27T08:36:12;97387.69;;;7.74;100.00
9091;BME280;4581;42.416;25.598;2023-01-27T08:38:40;97385.81;;;7.75;100.00
9091;BME280;4581;42.416;25.598;2023-01-27T08:41:10;97392.13;;;7.82;100.00
9091;BME280;4581;42.416;25.598;2023-01-27T08:43:37;97400.81;;;7.84;100.00
9091;BME280;4581;42.416;25.598;2023-01-27T08:46:04;97392.22;;;7.88;100.00
9091;BME280;4581;42.416;25.598;2023-01-27T08:48:33;97397.66;;;7.95;100.00
9091;BME280;4581;42.416;25.598;2023-01-27T08:51:01;97390.81;;;7.92;100.00
9091;BME280;4581;42.416;25.598;2023-01-27T08:53:28;97399.88;;;8.06;100.00
9091;BME280;4581;42.416;25.598;2023-01-27T08:55:56;97399.50;;;8.09;100.00
9091;BME280;4581;42.416;25.598;2023-01-27T08:58:24;97395.47;;;8.20;100.00
9091;BME280;4581;42.416;25.598;2023-01-27T09:00:50;97382.94;;;8.06;100.00
9091;BME280;4581;42.416;25.598;2023-01-27T09:03:17;97399.50;;;8.09;100.00
9091;BME280;4581;42.416;25.598;2023-01-27T09:05:46;97390.78;;;8.07;100.00
9091;BME280;4581;42.416;25.598;2023-01-27T09:08:13;97382.22;;;7.97;100.00
9091;BME280;4581;42.416;25.598;2023-01-27T09:10:41;97388.09;;;8.07;100.00
9091;BME280;4581;42.416;25.598;2023-01-27T09:13:08;97392.56;;;8.00;100.00
9091;BME280;4581;42.416;25.598;2023-01-27T09:15:35;97385.63;;;7.91;100.00
9091;BME280;4581;42.416;25.598;2023-01-27T09:18:03;97388.41;;;7.83;100.00
9091;BME280;4581;42.416;25.598;2023-01-27T09:20:32;97388.06;;;7.86;100.00
9091;BME280;4581;42.416;25.598;2023-01-27T09:22:59;97385.28;;;7.79;100.00
9091;BME280;4581;42.416;25.598;2023-01-27T09:25:26;97373.16;;;7.69;100.00
9091;BME280;4581;42.416;25.598;2023-01-27T09:27:54;97373.91;;;7.63;100.00
9091;BME280;4581;42.416;25.598;2023-01-27T09:30:22;97374.56;;;7.65;100.00
9091;BME280;4581;42.416;25.598;2023-01-27T09:32:49;97379.91;;;7.65;100.00
9091;BME280;4581;42.416;25.598;2023-01-27T09:35:16;97370.41;;;7.62;100.00
9091;BME280;4581;42.416;25.598;2023-01-27T09:37:53;97372.25;;;7.62;100.00
9091;BME280;4581;42.416;25.598;2023-01-27T09:50:58;97360.66;;;7.76;100.00
9091;BME280;4581;42.416;25.598;2023-01-27T09:53:41;97366.03;;;7.76;100.00
9091;BME280;4581;42.416;25.598;2023-01-27T10:04:41;97355.59;;;7.66;100.00
9091;BME280;4581;42.416;25.598;2023-01-27T10:15:11;97336.06;;;7.72;100.00
9091;BME280;4581;42.416;25.598;2023-01-27T10:18:13;97326.13;;;7.87;100.00
9091;BME280;4581;42.416;25.598;2023-01-27T10:21:15;97325.78;;;7.76;100.00
9091;BME280;4581;42.416;25.598;2023-01-27T10:26:38;97317.28;;;7.72;100.00
9091;BME280;4581;42.416;25.598;2023-01-27T10:29:32;97314.19;;;7.54;100.00
9091;BME280;4581;42.416;25.598;2023-01-27T10:32:23;97306.22;;;7.46;100.00
9091;BME280;4581;42.416;25.598;2023-01-27T10:35:26;97304.38;;;7.46;100.00
9091;BME280;4581;42.416;25.598;2023-01-27T10:38:15;97295.03;;;7.42;100.00
9091;BME280;4581;42.416;25.598;2023-01-27T10:40:51;97291.63;;;7.48;100.00
9091;BME280;4581;42.416;25.598;2023-01-27T10:49:34;97282.81;;;7.69;100.00
9091;BME280;4581;42.416;25.598;2023-01-27T10:51:38;97280.13;;;7.69;100.00
9091;BME280;4581;42.416;25.598;2023-01-27T11:02:41;97256.94;;;7.47;100.00
9091;BME280;4581;42.416;25.598;2023-01-27T11:05:17;97272.00;;;7.48;100.00
9091;BME280;4581;42.416;25.598;2023-01-27T11:07:51;97265.75;;;7.41;100.00
9091;BME280;4581;42.416;25.598;2023-01-27T11:10:24;97272.66;;;7.35;100.00
9091;BME280;4581;42.416;25.598;2023-01-27T11:12:57;97265.28;;;7.37;100.00
9091;BME280;4581;42.416;25.598;2023-01-27T11:15:32;97275.56;;;7.34;100.00
9091;BME280;4581;42.416;25.598;2023-01-27T11:18:19;97269.81;;;7.37;100.00
9091;BME280;4581;42.416;25.598;2023-01-27T11:20:52;97271.66;;;7.36;100.00
9091;BME280;4581;42.416;25.598;2023-01-27T11:23:25;97264.81;;;7.34;100.00
9091;BME280;4581;42.416;25.598;2023-01-27T11:26:05;97265.47;;;7.21;100.00
9091;BME280;4581;42.416;25.598;2023-01-27T11:36:53;97254.06;;;7.48;100.00
9091;BME280;4581;42.416;25.598;2023-01-27T11:39:20;97250.63;;;7.54;100.00
9091;BME280;4581;42.416;25.598;2023-01-27T11:41:50;97245.25;;;7.54;100.00
9091;BME280;4581;42.416;25.598;2023-01-27T11:44:25;97227.75;;;7.37;100.00
9091;BME280;4581;42.416;25.598;2023-01-27T11:46:54;97244.34;;;7.47;100.00
9091;BME280;4581;42.416;25.598;2023-01-27T11:49:30;97247.31;;;7.52;100.00
9091;BME280;4581;42.416;25.598;2023-01-27T11:52:08;97250.91;;;7.60;100.00
9091;BME280;4581;42.416;25.598;2023-01-27T11:54:48;97255.06;;;7.62;100.00
9091;BME280;4581;42.416;25.598;2023-01-27T11:57:19;97259.84;;;7.67;100.00
9091;BME280;4581;42.416;25.598;2023-01-27T11:59:52;97254.88;;;7.64;100.00
9091;BME280;4581;42.416;25.598;2023-01-27T12:02:50;97247.09;;;7.69;100.00
9091;BME280;4581;42.416;25.598;2023-01-27T12:05:27;97252.91;;;7.72;100.00
9091;BME280;4581;42.416;25.598;2023-01-27T12:07:58;97251.25;;;7.71;100.00
9091;BME280;4581;42.416;25.598;2023-01-27T12:13:15;97255.63;;;7.58;100.00
9091;BME280;4581;42.416;25.598;2023-01-27T12:15:55;97261.84;;;7.58;100.00
9091;BME280;4581;42.416;25.598;2023-01-27T12:18:24;97260.63;;;7.61;100.00
9091;BME280;4581;42.416;25.598;2023-01-27T12:20:59;97256.38;;;7.51;100.00
9091;BME280;4581;42.416;25.598;2023-01-27T12:23:29;97260.16;;;7.42;100.00
9091;BME280;4581;42.416;25.598;2023-01-27T12:25:59;97264.13;;;7.46;100.00
9091;BME280;4581;42.416;25.598;2023-01-27T12:31:26;97267.59;;;7.40;100.00
9091;BME280;4581;42.416;25.598;2023-01-27T12:36:23;97263.63;;;7.36;100.00
9091;BME280;4581;42.416;25.598;2023-01-27T12:38:55;97253.28;;;7.33;100.00
9091;BME280;4581;42.416;25.598;2023-01-27T12:41:27;97260.84;;;7.44;100.00
9091;BME280;4581;42.416;25.598;2023-01-27T12:43:57;97254.44;;;7.31;100.00
9091;BME280;4581;42.416;25.598;2023-01-27T12:46:27;97250.47;;;7.27;100.00
9091;BME280;4581;42.416;25.598;2023-01-27T12:49:01;97254.09;;;7.19;100.00
9091;BME280;4581;42.416;25.598;2023-01-27T12:54:25;97252.44;;;7.18;100.00
9091;BME280;4581;42.416;25.598;2023-01-27T12:56:55;97246.72;;;7.21;100.00
9091;BME280;4581;42.416;25.598;2023-01-27T12:59:26;97239.50;;;7.22;100.00
9091;BME280;4581;42.416;25.598;2023-01-27T13:02:20;97246.06;;;7.19;100.00
9091;BME280;4581;42.416;25.598;2023-01-27T13:04:56;97239.13;;;7.25;100.00
9091;BME280;4581;42.416;25.598;2023-01-27T13:07:26;97237.63;;;7.22;100.00
9091;BME280;4581;42.416;25.598;2023-01-27T13:10:00;97241.91;;;7.17;100.00
9091;BME280;4581;42.416;25.598;2023-01-27T13:17:47;97246.06;;;7.19;100.00
9091;BME280;4581;42.416;25.598;2023-01-27T13:20:28;97239.84;;;7.19;100.00
9091;BME280;4581;42.416;25.598;2023-01-27T13:23:18;97242.09;;;7.30;100.00
9091;BME280;4581;42.416;25.598;2023-01-27T13:28:38;97243.66;;;7.24;100.00
9091;BME280;4581;42.416;25.598;2023-01-27T13:34:14;97248.75;;;7.19;100.00
9091;BME280;4581;42.416;25.598;2023-01-27T13:36:51;97246.25;;;7.18;100.00
9091;BME280;4581;42.416;25.598;2023-01-27T13:41:54;97243.38;;;7.19;100.00
9091;BME280;4581;42.416;25.598;2023-01-27T13:47:17;97261.47;;;7.32;100.00
9091;BME280;4581;42.416;25.598;2023-01-27T13:50:02;97255.75;;;7.35;100.00
9091;BME280;4581;42.416;25.598;2023-01-27T13:52:32;97263.88;;;7.41;100.00
9091;BME280;4581;42.416;25.598;2023-01-27T13:54:59;97270.78;;;7.50;100.00
9091;BME280;4581;42.416;25.598;2023-01-27T14:08:30;97278.50;;;7.24;100.00
9091;BME280;4581;42.416;25.598;2023-01-27T14:11:28;97281.00;;;7.11;100.00
9091;BME280;4581;42.416;25.598;2023-01-27T14:19:27;97286.53;;;6.95;100.00
9091;BME280;4581;42.416;25.598;2023-01-27T14:22:15;97288.94;;;6.90;100.00
9091;BME280;4581;42.416;25.598;2023-01-27T14:25:17;97290.66;;;6.83;100.00
9091;BME280;4581;42.416;25.598;2023-01-27T14:28:26;97298.53;;;6.84;100.00
9091;BME280;4581;42.416;25.598;2023-01-27T14:30:59;97294.91;;;6.77;100.00
9091;BME280;4581;42.416;25.598;2023-01-27T14:33:57;97302.34;;;6.52;100.00
9091;BME280;4581;42.416;25.598;2023-01-27T14:36:34;97297.44;;;6.56;100.00
9091;BME280;4581;42.416;25.598;2023-01-27T14:42:41;97303.56;;;6.65;100.00
9091;BME280;4581;42.416;25.598;2023-01-27T14:45:23;97305.72;;;6.69;100.00
9091;BME280;4581;42.416;25.598;2023-01-27T14:53:04;97327.31;;;6.68;100.00
9091;BME280;4581;42.416;25.598;2023-01-27T15:06:46;97324.31;;;5.94;100.00
9091;BME280;4581;42.416;25.598;2023-01-27T15:09:29;97321.34;;;5.89;100.00
9091;BME280;4581;42.416;25.598;2023-01-27T15:17:30;97311.31;;;5.91;100.00
9091;BME280;4581;42.416;25.598;2023-01-27T15:26:08;97312.88;;;5.78;100.00
9091;BME280;4581;42.416;25.598;2023-01-27T15:28:30;97316.38;;;5.70;100.00
9091;BME280;4581;42.416;25.598;2023-01-27T15:33:49;97316.28;;;5.63;100.00
9091;BME280;4581;42.416;25.598;2023-01-27T15:36:37;97320.41;;;5.66;100.00
9091;BME280;4581;42.416;25.598;2023-01-27T15:44:33;97318.31;;;5.92;100.00
9091;BME280;4581;42.416;25.598;2023-01-27T15:47:22;97327.81;;;5.95;100.00
9091;BME280;4581;42.416;25.598;2023-01-27T15:50:12;97332.19;;;5.96;100.00
9091;BME280;4581;42.416;25.598;2023-01-27T15:52:42;97329.66;;;5.94;100.00